createdAt,value
2022-12-08T04:44:22.921Z,0.66
2022-12-08T04:47:26.076Z,0.66
2022-12-08T04:50:28.692Z,0.20
2022-12-08T04:53:33.017Z,0.27
2022-12-08T04:56:35.652Z,0.24
2022-12-08T04:59:38.473Z,0.30
2022-12-08T05:02:41.255Z,0.42
2022-12-08T05:05:44.151Z,0.52
2022-12-08T05:08:46.622Z,0.53
2022-12-08T05:11:49.510Z,0.51
2022-12-08T05:14:51.993Z,0.55
2022-12-08T05:17:54.927Z,0.49
2022-12-08T05:20:57.648Z,0.46
2022-12-08T05:24:00.384Z,0.39
2022-12-08T05:27:03.067Z,0.34
2022-12-08T05:30:08.457Z,0.34
2022-12-08T05:33:11.171Z,0.34
2022-12-08T05:36:15.269Z,0.36
2022-12-08T05:39:17.982Z,0.47
2022-12-08T05:42:24.755Z,0.45
2022-12-08T05:45:27.909Z,0.49
2022-12-08T05:48:31.043Z,0.60
2022-12-08T05:51:33.701Z,0.58
2022-12-08T05:54:36.700Z,0.64
2022-12-08T05:57:39.269Z,0.65
2022-12-08T06:00:42.955Z,0.69
2022-12-08T06:03:45.768Z,0.74
2022-12-08T06:06:48.243Z,0.69
2022-12-08T06:09:51.104Z,0.71
2022-12-08T06:12:53.796Z,0.81
2022-12-08T06:15:56.659Z,0.78
2022-12-08T06:18:59.243Z,0.84
2022-12-08T06:22:02.188Z,0.89
2022-12-08T06:25:08.552Z,0.88
2022-12-08T06:28:12.804Z,0.93
2022-12-08T06:31:23.963Z,0.94
2022-12-08T06:34:27.137Z,1.00
2022-12-08T06:37:29.710Z,1.06
2022-12-08T06:40:32.586Z,1.04
2022-12-08T06:43:35.303Z,1.01
2022-12-08T06:46:38.179Z,1.01
2022-12-08T06:49:40.743Z,1.07
2022-12-08T06:52:54.361Z,1.11
2022-12-08T06:56:04.230Z,1.23
2022-12-08T06:59:07.284Z,1.17
2022-12-08T07:02:11.407Z,1.19
2022-12-08T07:05:14.273Z,1.23
2022-12-08T07:08:17.110Z,1.28
2022-12-08T07:11:22.266Z,1.33
2022-12-08T07:14:25.305Z,1.43
2022-12-08T07:17:28.185Z,1.52
2022-12-08T07:20:30.773Z,1.59
2022-12-08T07:23:33.779Z,1.72
2022-12-08T07:26:36.256Z,1.78
2022-12-08T07:29:39.242Z,1.87
2022-12-08T07:32:41.934Z,1.86
2022-12-08T07:35:49.177Z,1.90
2022-12-08T07:38:56.758Z,1.94
2022-12-08T07:41:59.721Z,2.08
2022-12-08T07:45:02.467Z,2.13
2022-12-08T07:48:06.352Z,2.24
2022-12-08T07:51:10.685Z,2.37
2022-12-08T07:54:13.888Z,2.47
2022-12-08T07:57:16.373Z,2.58
2022-12-08T08:00:20.266Z,2.72
2022-12-08T08:03:23.166Z,2.89
2022-12-08T08:06:25.788Z,2.96
2022-12-08T08:09:28.681Z,3.10
2022-12-08T08:12:32.655Z,3.23
2022-12-08T08:15:36.389Z,3.51
2022-12-08T08:18:40.067Z,3.67
2022-12-08T08:21:45.829Z,3.74
2022-12-08T08:24:48.925Z,3.61
2022-12-08T08:27:51.867Z,3.63
2022-12-08T08:30:55.179Z,3.68
2022-12-08T08:33:58.023Z,3.77
2022-12-08T08:37:00.624Z,3.81
2022-12-08T08:40:04.286Z,3.83
2022-12-08T08:43:07.168Z,4.02
2022-12-08T08:46:10.382Z,4.07
2022-12-08T08:49:13.162Z,4.08
2022-12-08T08:52:16.003Z,4.14
2022-12-08T08:55:19.413Z,4.30
2022-12-08T08:58:22.299Z,4.46
2022-12-08T09:01:27.395Z,4.75
2022-12-08T09:04:30.313Z,4.83
2022-12-08T09:07:32.978Z,4.86
2022-12-08T09:10:35.851Z,4.94
2022-12-08T09:13:38.811Z,5.06
2022-12-08T09:16:42.678Z,5.08
2022-12-08T09:19:45.268Z,5.04
2022-12-08T09:22:48.194Z,4.92
2022-12-08T09:25:50.713Z,4.95
2022-12-08T09:28:55.721Z,4.95
2022-12-08T09:31:58.277Z,4.96
2022-12-08T09:35:01.643Z,4.83
2022-12-08T09:38:04.254Z,4.80
2022-12-08T09:41:22.408Z,4.80
2022-12-08T09:44:47.646Z,4.66
2022-12-08T09:48:16.439Z,4.43
2022-12-08T09:51:20.123Z,4.54
2022-12-08T09:54:30.288Z,4.66
2022-12-08T09:57:33.174Z,4.64
2022-12-08T10:00:36.094Z,4.72
2022-12-08T10:03:40.365Z,4.91
2022-12-08T10:07:22.663Z,5.07
2022-12-08T10:10:35.920Z,5.14
2022-12-08T10:14:04.131Z,5.38
2022-12-08T10:17:23.818Z,5.54
2022-12-08T10:20:37.668Z,5.48
2022-12-08T10:23:43.610Z,5.58
2022-12-08T10:26:47.321Z,5.58
2022-12-08T10:29:50.114Z,5.40
2022-12-08T10:32:54.196Z,5.44
2022-12-08T10:35:59.257Z,5.33
2022-12-08T10:39:01.923Z,5.53
2022-12-08T10:42:17.134Z,5.72
2022-12-08T10:45:29.370Z,5.90
2022-12-08T10:48:33.727Z,5.76
2022-12-08T10:51:42.002Z,5.92
2022-12-08T10:54:44.811Z,6.17
2022-12-08T10:57:51.079Z,6.41
2022-12-08T11:00:57.686Z,6.36
2022-12-08T11:04:03.682Z,6.61
2022-12-08T11:07:11.640Z,6.68
2022-12-08T11:10:20.279Z,6.82
2022-12-08T11:13:26.555Z,6.63
2022-12-08T11:16:29.337Z,6.65
2022-12-08T11:19:36.764Z,6.45
2022-12-08T11:22:45.957Z,6.36
2022-12-08T11:25:50.618Z,6.14
2022-12-08T11:28:53.295Z,6.00
2022-12-08T11:32:16.500Z,5.96
2022-12-08T11:35:26.331Z,5.89
2022-12-08T11:38:31.873Z,5.87
2022-12-08T11:41:39.676Z,5.75
2022-12-08T11:44:53.237Z,5.66
2022-12-08T11:48:11.360Z,5.68
2022-12-08T11:51:25.785Z,5.65
2022-12-08T11:54:34.424Z,5.58
2022-12-08T11:57:38.209Z,5.58
2022-12-08T12:00:40.821Z,5.59
2022-12-08T12:03:50.992Z,5.66
2022-12-08T12:07:24.640Z,5.67
2022-12-08T12:10:35.711Z,5.71
2022-12-08T12:14:07.829Z,5.77
2022-12-08T12:17:32.580Z,5.71
2022-12-08T12:20:48.999Z,5.68
2022-12-08T12:23:51.805Z,5.51
2022-12-08T12:27:07.179Z,5.46
2022-12-08T12:30:20.010Z,5.41
2022-12-08T12:33:23.859Z,5.35
2022-12-08T12:36:26.841Z,5.29
2022-12-08T12:39:31.847Z,5.17
2022-12-08T12:42:42.034Z,5.11
2022-12-08T12:45:45.794Z,5.05
2022-12-08T12:48:49.154Z,5.12
2022-12-08T12:51:55.645Z,4.97
2022-12-08T12:54:58.519Z,4.85
2022-12-08T12:58:18.752Z,4.72
2022-12-08T13:01:21.731Z,4.80
2022-12-08T13:04:35.028Z,4.89
2022-12-08T13:07:52.399Z,4.93
2022-12-08T13:11:04.422Z,4.88
2022-12-08T13:14:21.842Z,4.82
2022-12-08T13:17:28.629Z,4.75
2022-12-08T13:20:42.110Z,4.68
2022-12-08T13:23:48.745Z,4.65
2022-12-08T13:27:33.164Z,4.58
2022-12-08T13:30:43.851Z,4.48
2022-12-08T13:33:47.184Z,4.51
2022-12-08T13:37:10.974Z,4.48
2022-12-08T13:40:22.794Z,4.40
2022-12-08T13:43:55.558Z,4.40
2022-12-08T13:52:32.937Z,4.35
2022-12-08T13:57:44.972Z,4.28
2022-12-08T14:01:23.915Z,4.33
2022-12-08T14:04:54.369Z,4.30
2022-12-08T14:07:54.891Z,4.25
2022-12-08T14:11:02.354Z,4.10
2022-12-08T14:15:02.653Z,4.07
2022-12-08T14:17:57.590Z,4.07
2022-12-08T14:21:22.091Z,4.07
2022-12-08T14:24:27.286Z,4.07
2022-12-08T14:27:34.415Z,4.02
2022-12-08T14:30:39.579Z,3.92
2022-12-08T14:33:43.082Z,3.95
2022-12-08T14:36:46.190Z,3.88
2022-12-08T14:39:49.839Z,3.83
2022-12-08T14:43:14.317Z,3.78
2022-12-08T14:46:21.795Z,3.67
2022-12-08T14:49:36.521Z,3.63
2022-12-08T14:52:43.890Z,3.63
2022-12-08T14:55:48.450Z,3.58
2022-12-08T14:59:07.548Z,3.63
2022-12-08T15:02:19.310Z,3.62
2022-12-08T15:05:26.555Z,3.55
2022-12-08T15:08:31.057Z,3.53
2022-12-08T15:11:35.551Z,3.51
2022-12-08T15:14:54.710Z,3.49
2022-12-08T15:18:21.855Z,3.44
2022-12-08T15:21:30.442Z,3.41
2022-12-08T15:24:35.613Z,3.41
2022-12-08T15:27:49.545Z,3.41
2022-12-08T15:30:53.279Z,3.43
2022-12-08T15:33:56.147Z,3.37
2022-12-08T15:36:58.777Z,3.37
2022-12-08T15:40:01.646Z,3.36
2022-12-08T15:43:04.227Z,3.41
2022-12-08T15:46:07.124Z,3.42
2022-12-08T15:49:18.185Z,3.47
2022-12-08T15:52:23.940Z,3.48
2022-12-08T15:55:27.244Z,3.47
2022-12-08T15:58:53.613Z,3.47
2022-12-08T16:01:53.274Z,3.47
2022-12-08T16:12:09.950Z,3.47
2022-12-08T16:18:38.881Z,3.52
2022-12-08T16:25:21.362Z,3.45
2022-12-08T16:28:52.842Z,3.45
2022-12-08T16:31:48.300Z,3.41
